createdAt,value
2018-12-26T00:00:28.348Z,5.13
2018-12-26T00:02:57.826Z,5.93
2018-12-26T00:05:27.391Z,5.53
2018-12-26T00:07:57.216Z,10.23
2018-12-26T00:10:26.671Z,8.47
2018-12-26T00:12:56.137Z,15.40
2018-12-26T00:15:25.584Z,13.87
2018-12-26T00:17:55.446Z,15.03
2018-12-26T00:20:27.334Z,14.97
2018-12-26T00:22:56.368Z,13.77
2018-12-26T00:25:25.860Z,18.63
2018-12-26T00:27:55.835Z,16.43
2018-12-26T00:30:25.282Z,21.27
2018-12-26T00:32:55.073Z,24.03
2018-12-26T00:35:24.524Z,20.13
2018-12-26T00:37:53.917Z,16.30
2018-12-26T00:40:23.727Z,18.30
2018-12-26T00:42:53.195Z,19.67
2018-12-26T00:45:22.555Z,18.20
2018-12-26T00:47:51.932Z,16.00
2018-12-26T00:50:21.843Z,18.90
2018-12-26T00:52:51.268Z,14.40
2018-12-26T00:55:20.983Z,14.13
2018-12-26T00:57:50.420Z,16.70
2018-12-26T01:00:19.842Z,14.40
2018-12-26T01:02:49.299Z,14.87
2018-12-26T01:05:19.031Z,15.27
2018-12-26T01:07:48.514Z,15.57
2018-12-26T01:10:17.962Z,14.67
2018-12-26T01:12:47.388Z,18.17
2018-12-26T01:15:17.304Z,12.70
2018-12-26T01:17:46.732Z,12.37
2018-12-26T01:20:16.191Z,14.57
2018-12-26T01:22:46.067Z,12.90
2018-12-26T01:25:15.911Z,12.03
2018-12-26T01:27:45.360Z,11.87
2018-12-26T01:30:15.627Z,14.30
2018-12-26T01:32:45.057Z,12.73
2018-12-26T01:35:14.972Z,12.33
2018-12-26T01:37:44.336Z,14.17
2018-12-26T01:40:13.771Z,13.97
2018-12-26T01:42:43.144Z,11.80
2018-12-26T01:45:12.616Z,11.97
2018-12-26T01:47:42.011Z,12.60
2018-12-26T01:50:11.388Z,13.53
2018-12-26T01:52:40.875Z,8.87
2018-12-26T01:55:10.328Z,8.83
2018-12-26T01:57:40.117Z,10.33
2018-12-26T02:00:09.597Z,9.47
2018-12-26T02:02:39.056Z,8.33
2018-12-26T02:05:08.437Z,8.97
2018-12-26T02:07:37.812Z,10.27
2018-12-26T02:10:07.702Z,10.00
2018-12-26T02:12:37.083Z,14.00
2018-12-26T02:15:06.598Z,12.53
2018-12-26T02:17:36.055Z,9.60
2018-12-26T02:20:05.803Z,12.60
2018-12-26T02:22:35.238Z,10.37
2018-12-26T02:25:05.105Z,12.77
2018-12-26T02:27:34.576Z,11.97
2018-12-26T02:30:04.559Z,10.57
2018-12-26T02:32:53.185Z,9.63
2018-12-26T02:35:41.765Z,11.83
2018-12-26T02:38:30.267Z,12.17
2018-12-26T02:41:19.008Z,18.00
2018-12-26T02:44:07.757Z,15.73
2018-12-26T02:46:56.672Z,15.27
2018-12-26T02:49:45.136Z,17.60
2018-12-26T02:52:33.676Z,14.03
2018-12-26T02:55:22.159Z,13.27
2018-12-26T02:58:10.704Z,14.87
2018-12-26T03:00:59.420Z,11.17
2018-12-26T03:03:47.972Z,10.80
2018-12-26T03:09:43.991Z,8.73
2018-12-26T03:12:32.519Z,10.57
2018-12-26T03:15:21.394Z,8.40
2018-12-26T03:18:09.895Z,9.80
2018-12-26T03:21:13.632Z,5.67
2018-12-26T03:23:43.918Z,10.03
2018-12-26T03:26:24.708Z,9.00
2018-12-26T03:29:03.989Z,7.97
2018-12-26T03:31:52.473Z,7.47
2018-12-26T03:34:41.693Z,6.70
2018-12-26T03:37:30.222Z,6.63
2018-12-26T03:40:18.851Z,7.77
2018-12-26T03:43:07.409Z,9.67
2018-12-26T03:45:56.055Z,6.37
2018-12-26T03:48:46.019Z,9.17
2018-12-26T03:51:53.538Z,7.03
2018-12-26T03:54:42.071Z,8.90
2018-12-26T03:57:30.951Z,8.33
2018-12-26T04:00:19.647Z,7.63
2018-12-26T04:03:08.268Z,6.60
2018-12-26T04:05:56.787Z,7.50
2018-12-26T04:11:59.685Z,8.20
2018-12-26T04:14:48.195Z,11.03
2018-12-26T04:17:36.873Z,10.13
2018-12-26T04:20:25.401Z,10.37
2018-12-26T04:23:06.163Z,9.40
2018-12-26T04:25:45.682Z,7.30
2018-12-26T04:28:34.283Z,9.03
2018-12-26T04:31:23.050Z,9.30
2018-12-26T04:33:52.700Z,7.93
2018-12-26T04:36:41.250Z,6.10
2018-12-26T04:39:30.247Z,9.20
2018-12-26T04:42:19.094Z,7.27
2018-12-26T04:45:07.622Z,7.47
2018-12-26T04:47:56.076Z,8.73
2018-12-26T04:50:44.626Z,12.23
2018-12-26T04:53:33.179Z,8.67
2018-12-26T04:56:21.731Z,11.60
2018-12-26T04:59:10.268Z,10.93
2018-12-26T05:01:58.691Z,9.07
2018-12-26T05:04:47.352Z,7.43
2018-12-26T05:10:51.233Z,11.83
2018-12-26T05:13:39.812Z,18.97
2018-12-26T05:16:28.560Z,24.67
2018-12-26T05:19:17.499Z,48.43
2018-12-26T05:21:58.818Z,42.47
2018-12-26T05:24:28.371Z,23.60
2018-12-26T05:27:17.171Z,19.87
2018-12-26T05:30:06.037Z,36.10
2018-12-26T05:32:54.590Z,57.90
2018-12-26T05:35:43.090Z,76.77
2018-12-26T05:38:31.869Z,28.53
2018-12-26T05:41:20.652Z,75.03
2018-12-26T05:43:50.242Z,19.57
2018-12-26T05:46:38.771Z,53.93
2018-12-26T05:49:27.224Z,116.97
2018-12-26T05:52:15.724Z,61.63
2018-12-26T05:57:59.779Z,71.17
2018-12-26T06:00:48.311Z,89.20
2018-12-26T06:03:36.821Z,59.90
2018-12-26T06:06:25.332Z,61.77
2018-12-26T06:09:13.845Z,27.60
2018-12-26T06:12:02.368Z,62.53
2018-12-26T06:14:50.803Z,27.97
2018-12-26T06:17:39.364Z,21.63
2018-12-26T06:20:27.907Z,35.70
2018-12-26T06:23:16.396Z,70.42
2018-12-26T06:26:05.103Z,21.57
2018-12-26T06:28:34.556Z,16.90
2018-12-26T06:31:04.043Z,34.60
2018-12-26T06:33:52.501Z,24.90
2018-12-26T06:36:41.319Z,26.00
2018-12-26T06:39:29.817Z,32.47
2018-12-26T06:45:12.050Z,24.63
2018-12-26T06:48:00.971Z,18.70
2018-12-26T06:53:43.751Z,38.27
2018-12-26T06:56:32.244Z,32.23
2018-12-26T06:59:21.082Z,38.37
2018-12-26T07:02:09.534Z,40.13
2018-12-26T07:04:58.054Z,35.33
2018-12-26T07:10:56.199Z,30.20
2018-12-26T07:13:45.824Z,41.63
2018-12-26T07:19:35.183Z,37.37
2018-12-26T07:22:19.648Z,42.80
2018-12-26T07:25:03.315Z,51.00
2018-12-26T07:27:32.789Z,56.20
2018-12-26T07:42:18.985Z,39.50
2018-12-26T07:48:09.886Z,32.50
2018-12-26T07:50:58.413Z,42.67
2018-12-26T07:53:46.474Z,34.93
2018-12-26T07:56:34.977Z,61.77
2018-12-26T07:59:23.569Z,61.90
2018-12-26T08:05:42.986Z,75.90
2018-12-26T08:08:31.609Z,41.80
2018-12-26T08:11:20.183Z,34.67
2018-12-26T08:13:49.676Z,31.23
2018-12-26T08:16:38.199Z,73.33
2018-12-26T08:19:07.717Z,31.23
2018-12-26T08:21:49.124Z,32.67
2018-12-26T08:24:30.355Z,47.90
2018-12-26T08:27:11.989Z,51.40
2018-12-26T08:29:52.582Z,33.97
2018-12-26T08:32:33.355Z,36.27
2018-12-26T08:35:14.665Z,35.60
2018-12-26T08:37:56.216Z,32.90
2018-12-26T08:40:35.424Z,38.27
2018-12-26T08:43:24.253Z,34.77
2018-12-26T08:46:13.583Z,48.07
2018-12-26T08:49:02.125Z,45.37
2018-12-26T08:51:51.025Z,35.80
2018-12-26T08:55:04.676Z,42.77
2018-12-26T08:57:29.760Z,48.43
2018-12-26T09:00:18.287Z,34.10
2018-12-26T09:03:06.862Z,41.50
2018-12-26T09:05:55.389Z,44.67
2018-12-26T09:08:43.956Z,29.30
2018-12-26T09:11:32.415Z,34.67
2018-12-26T09:14:36.300Z,30.83
2018-12-26T09:17:12.028Z,29.50
2018-12-26T09:20:00.763Z,37.97
2018-12-26T09:22:51.577Z,27.63
2018-12-26T09:25:21.412Z,27.93
2018-12-26T09:27:56.058Z,38.40
2018-12-26T09:30:44.693Z,32.83
2018-12-26T09:33:14.491Z,31.43
2018-12-26T09:36:03.000Z,30.80
2018-12-26T09:44:30.141Z,32.73
2018-12-26T09:47:18.625Z,33.77
2018-12-26T09:50:07.669Z,37.10
2018-12-26T09:52:56.210Z,30.03
2018-12-26T09:58:35.768Z,33.13
2018-12-26T10:01:43.478Z,32.07
2018-12-26T10:04:32.104Z,33.97
2018-12-26T10:07:20.767Z,36.17
2018-12-26T10:09:50.832Z,34.50
2018-12-26T10:12:39.803Z,33.73
2018-12-26T10:15:30.482Z,30.40
2018-12-26T10:18:38.146Z,33.20
2018-12-26T10:21:07.884Z,31.37
2018-12-26T10:29:50.624Z,42.77
2018-12-26T10:32:39.514Z,33.17
2018-12-26T10:38:30.909Z,30.77
2018-12-26T10:41:38.708Z,31.60
2018-12-26T10:47:22.944Z,31.53
2018-12-26T10:50:11.534Z,29.30
2018-12-26T10:53:00.079Z,34.48
2018-12-26T10:58:40.386Z,29.37
2018-12-26T11:01:09.923Z,32.63
2018-12-26T11:04:20.331Z,31.73
2018-12-26T11:06:56.503Z,35.10
2018-12-26T11:15:54.503Z,32.87
2018-12-26T11:18:42.996Z,33.40
2018-12-26T11:21:31.716Z,31.33
2018-12-26T11:27:22.256Z,26.40
2018-12-26T11:30:37.228Z,27.53
2018-12-26T11:36:39.991Z,27.07
2018-12-26T11:38:53.888Z,26.50
2018-12-26T11:41:43.868Z,25.33
2018-12-26T11:44:32.467Z,25.40
2018-12-26T11:47:43.531Z,22.80
2018-12-26T11:50:32.036Z,24.63
2018-12-26T11:56:16.371Z,24.77
2018-12-26T11:59:04.805Z,25.87
2018-12-26T12:02:20.551Z,28.90
2018-12-26T12:07:56.231Z,24.23
2018-12-26T12:22:43.372Z,29.13
2018-12-26T12:25:30.343Z,31.83
2018-12-26T12:28:11.542Z,30.73
2018-12-26T12:30:53.100Z,30.20
2018-12-26T12:36:23.894Z,36.30
2018-12-26T12:39:05.311Z,32.77
2018-12-26T12:41:46.032Z,30.93
2018-12-26T12:44:27.173Z,29.00
2018-12-26T12:47:06.919Z,32.97
2018-12-26T12:49:55.727Z,33.93
2018-12-26T12:52:45.357Z,35.90
2018-12-26T12:55:33.948Z,36.63
2018-12-26T12:58:24.962Z,37.83
2018-12-26T13:04:15.919Z,46.00
2018-12-26T13:13:20.655Z,39.57
2018-12-26T13:18:57.964Z,36.30
2018-12-26T13:21:46.481Z,37.33
2018-12-26T13:27:18.082Z,41.10
2018-12-26T13:30:13.739Z,41.13
2018-12-26T13:33:02.251Z,38.60
2018-12-26T13:35:50.938Z,37.83
2018-12-26T13:38:39.845Z,32.67
2018-12-26T13:41:28.408Z,35.70
2018-12-26T13:44:17.238Z,40.70
2018-12-26T13:46:46.723Z,35.60
2018-12-26T13:49:38.845Z,38.50
2018-12-26T13:52:27.353Z,34.43
2018-12-26T13:58:34.535Z,39.17
2018-12-26T14:01:23.032Z,34.33
2018-12-26T14:04:11.595Z,37.33
2018-12-26T14:07:00.154Z,42.70
2018-12-26T14:09:29.659Z,37.87
2018-12-26T14:11:59.082Z,41.50
2018-12-26T14:14:28.527Z,37.60
2018-12-26T14:16:58.157Z,39.27
2018-12-26T14:19:27.642Z,34.77
2018-12-26T14:21:59.813Z,34.40
2018-12-26T14:24:29.298Z,37.03
2018-12-26T14:27:00.270Z,34.07
2018-12-26T14:29:29.847Z,34.60
2018-12-26T14:32:18.398Z,38.10
2018-12-26T14:38:09.327Z,37.47
2018-12-26T14:44:05.548Z,40.43
2018-12-26T14:49:56.136Z,39.97
2018-12-26T14:52:44.994Z,41.73
2018-12-26T14:55:33.985Z,44.13
2018-12-26T14:58:22.538Z,41.13
2018-12-26T15:01:11.649Z,41.27
2018-12-26T15:04:00.660Z,36.57
2018-12-26T15:06:49.669Z,33.70
2018-12-26T15:09:59.489Z,39.00
2018-12-26T15:12:49.228Z,36.00
2018-12-26T15:15:38.334Z,38.37
2018-12-26T15:18:27.347Z,33.70
2018-12-26T15:21:16.009Z,35.80
2018-12-26T15:23:45.495Z,33.80
2018-12-26T15:30:19.468Z,32.83
2018-12-26T15:33:09.032Z,33.23
2018-12-26T15:35:57.676Z,35.23
2018-12-26T15:38:46.997Z,31.37
2018-12-26T15:44:12.876Z,33.60
2018-12-26T15:47:01.513Z,34.90
2018-12-26T15:49:50.046Z,37.57
2018-12-26T15:52:38.661Z,40.15
2018-12-26T15:55:27.205Z,36.93
2018-12-26T16:00:50.299Z,31.33
2018-12-26T16:03:52.824Z,32.97
2018-12-26T16:06:29.200Z,34.63
2018-12-26T16:09:17.975Z,30.80
2018-12-26T16:12:09.688Z,35.03
2018-12-26T16:14:39.671Z,31.60
2018-12-26T16:17:28.572Z,33.73
2018-12-26T16:20:17.110Z,34.83
2018-12-26T16:23:05.661Z,37.00
2018-12-26T16:25:45.041Z,34.60
2018-12-26T16:28:33.586Z,36.13
2018-12-26T16:31:22.476Z,33.20
2018-12-26T16:34:11.139Z,31.03
2018-12-26T16:36:59.966Z,37.05
2018-12-26T16:39:48.905Z,34.77
2018-12-26T16:42:37.345Z,35.68
2018-12-26T16:45:25.892Z,33.43
2018-12-26T16:48:14.615Z,33.50
2018-12-26T16:51:03.695Z,33.80
2018-12-26T16:53:52.211Z,34.63
2018-12-26T16:56:40.718Z,32.07
2018-12-26T16:59:29.428Z,31.60
2018-12-26T17:02:18.232Z,30.63
2018-12-26T17:05:06.755Z,30.07
2018-12-26T17:07:55.265Z,31.37
2018-12-26T17:10:46.312Z,29.93
2018-12-26T17:13:38.586Z,31.77
2018-12-26T17:16:27.395Z,34.57
2018-12-26T17:19:15.866Z,32.43
2018-12-26T17:22:04.642Z,35.90
2018-12-26T17:24:44.331Z,34.37
2018-12-26T17:27:33.141Z,35.63
2018-12-26T17:30:22.105Z,37.10
2018-12-26T17:33:30.984Z,35.23
2018-12-26T17:39:16.225Z,39.33
2018-12-26T17:42:04.457Z,35.40
2018-12-26T17:44:53.065Z,41.60
2018-12-26T17:47:43.073Z,36.07
2018-12-26T17:54:09.569Z,37.20
2018-12-26T17:56:41.865Z,39.83
2018-12-26T17:59:50.121Z,37.03
2018-12-26T18:05:41.625Z,38.50
2018-12-26T18:08:30.420Z,37.63
2018-12-26T18:11:19.794Z,37.60
2018-12-26T18:14:08.633Z,32.47
2018-12-26T18:16:57.261Z,37.77
2018-12-26T18:19:46.313Z,32.83
2018-12-26T18:22:34.861Z,40.20
2018-12-26T18:25:16.081Z,36.27
2018-12-26T18:27:57.414Z,43.27
2018-12-26T18:30:27.016Z,36.30
2018-12-26T18:33:15.559Z,36.17
2018-12-26T18:36:04.605Z,36.23
2018-12-26T18:38:52.612Z,41.67
2018-12-26T18:41:41.373Z,40.60
2018-12-26T18:50:16.681Z,40.43
2018-12-26T18:53:05.227Z,40.33
2018-12-26T18:55:53.739Z,40.60
2018-12-26T18:58:42.597Z,38.30
2018-12-26T19:01:31.167Z,37.87
2018-12-26T19:04:19.624Z,36.50
2018-12-26T19:07:08.092Z,34.27
2018-12-26T19:09:56.763Z,35.30
2018-12-26T19:12:45.331Z,35.23
2018-12-26T19:15:33.915Z,40.10
2018-12-26T19:18:03.828Z,41.50
2018-12-26T19:20:52.999Z,37.20
2018-12-26T19:26:29.526Z,31.87
2018-12-26T19:29:10.819Z,34.60
2018-12-26T19:31:52.664Z,32.33
2018-12-26T19:34:33.994Z,38.20
2018-12-26T19:37:14.820Z,34.27
2018-12-26T19:39:56.261Z,33.30
2018-12-26T19:42:40.635Z,26.13
2018-12-26T19:45:21.346Z,30.40
2018-12-26T19:48:02.021Z,33.50
2018-12-26T19:50:46.663Z,31.67
2018-12-26T19:53:27.780Z,36.77
2018-12-26T19:56:08.502Z,32.97
2018-12-26T19:58:48.651Z,29.53
2018-12-26T20:01:37.277Z,46.43
2018-12-26T20:04:25.822Z,26.83
2018-12-26T20:07:14.401Z,34.03
2018-12-26T20:10:03.027Z,37.23
2018-12-26T20:16:04.262Z,35.60
2018-12-26T20:42:11.259Z,33.20
2018-12-26T20:44:53.103Z,31.07
2018-12-26T20:47:34.781Z,33.67
2018-12-26T20:50:13.930Z,30.03
2018-12-26T20:53:02.830Z,29.10
2018-12-26T20:55:51.367Z,32.10
2018-12-26T20:58:40.433Z,32.93
2018-12-26T21:01:29.303Z,36.50
2018-12-26T21:04:17.899Z,33.77
2018-12-26T21:07:06.521Z,45.30
2018-12-26T21:09:55.144Z,68.93
2018-12-26T21:12:43.760Z,38.43
2018-12-26T21:15:32.293Z,37.33
2018-12-26T21:18:20.801Z,34.70
2018-12-26T21:21:09.384Z,32.10
2018-12-26T21:23:38.901Z,35.50
2018-12-26T21:26:27.464Z,35.50
2018-12-26T21:32:14.188Z,35.10
2018-12-26T21:34:43.632Z,33.27
2018-12-26T21:37:13.067Z,31.40
2018-12-26T21:39:42.452Z,30.17
2018-12-26T21:42:12.859Z,33.97
2018-12-26T21:44:43.084Z,30.57
2018-12-26T21:47:12.838Z,34.30
2018-12-26T21:49:42.757Z,35.20
2018-12-26T21:52:12.549Z,44.47
2018-12-26T21:54:41.976Z,30.93
2018-12-26T21:57:11.552Z,36.63
2018-12-26T21:59:40.982Z,83.63
2018-12-26T22:02:10.589Z,32.67
2018-12-26T22:04:40.073Z,85.37
2018-12-26T22:07:09.495Z,37.97
2018-12-26T22:09:38.961Z,38.60
2018-12-26T22:12:08.424Z,61.17
2018-12-26T22:14:37.885Z,51.27
2018-12-26T22:17:07.348Z,57.70
2018-12-26T22:19:36.807Z,95.27
2018-12-26T22:22:06.578Z,69.80
2018-12-26T22:24:36.100Z,97.67
2018-12-26T22:27:05.528Z,39.30
2018-12-26T22:29:34.907Z,34.20
2018-12-26T22:32:04.316Z,41.43
2018-12-26T22:34:33.767Z,43.37
2018-12-26T22:37:03.580Z,39.53
2018-12-26T22:39:33.085Z,79.93
2018-12-26T22:42:02.524Z,87.47
2018-12-26T22:44:31.976Z,40.67
2018-12-26T22:47:01.426Z,51.90
2018-12-26T22:49:30.915Z,55.37
2018-12-26T22:52:00.762Z,55.80
2018-12-26T22:54:30.226Z,84.27
2018-12-26T22:56:59.672Z,56.00
2018-12-26T22:59:29.148Z,30.27
2018-12-26T23:01:58.579Z,47.90
2018-12-26T23:04:27.956Z,73.97
2018-12-26T23:06:57.387Z,32.73
2018-12-26T23:09:45.795Z,34.63
2018-12-26T23:12:15.186Z,43.63
2018-12-26T23:15:03.696Z,30.67
2018-12-26T23:17:33.577Z,48.83
2018-12-26T23:20:03.057Z,44.67
2018-12-26T23:22:32.830Z,34.93
2018-12-26T23:25:02.263Z,42.77
2018-12-26T23:27:32.059Z,33.50
2018-12-26T23:30:01.406Z,34.13
2018-12-26T23:32:30.885Z,46.03
2018-12-26T23:35:01.258Z,41.60
2018-12-26T23:37:30.697Z,58.40
2018-12-26T23:40:00.156Z,45.37
2018-12-26T23:42:29.601Z,53.60
2018-12-26T23:44:59.071Z,44.27
2018-12-26T23:47:28.514Z,35.57
2018-12-26T23:49:57.992Z,35.03
2018-12-26T23:52:27.417Z,47.17
2018-12-26T23:54:57.184Z,35.63
2018-12-26T23:57:26.617Z,33.73
